createdAt,value
2019-01-29T00:01:37.930Z,2.70
2019-01-29T00:04:04.560Z,2.70
2019-01-29T00:06:30.775Z,2.70
2019-01-29T00:08:57.038Z,2.70
2019-01-29T00:11:23.413Z,2.80
2019-01-29T00:13:49.786Z,2.70
2019-01-29T00:16:16.089Z,2.80
2019-01-29T00:18:42.307Z,2.80
2019-01-29T00:21:08.527Z,2.80
2019-01-29T00:23:34.791Z,2.90
2019-01-29T00:26:00.994Z,2.90
2019-01-29T00:28:27.215Z,2.90
2019-01-29T00:30:53.413Z,2.90
2019-01-29T00:33:19.639Z,2.90
2019-01-29T00:35:45.843Z,2.80
2019-01-29T00:38:12.054Z,2.90
2019-01-29T00:40:38.295Z,2.70
2019-01-29T00:43:04.579Z,2.70
2019-01-29T00:45:30.779Z,2.70
2019-01-29T00:47:57.027Z,2.70
2019-01-29T00:50:23.237Z,2.70
2019-01-29T00:52:49.650Z,2.70
2019-01-29T00:55:16.077Z,2.70
2019-01-29T00:57:42.477Z,2.60
2019-01-29T01:00:12.511Z,2.50
2019-01-29T01:02:38.702Z,2.50
2019-01-29T01:05:05.823Z,2.40
2019-01-29T01:07:32.031Z,2.40
2019-01-29T01:09:58.551Z,2.40
2019-01-29T01:12:24.756Z,2.40
2019-01-29T01:14:50.967Z,2.30
2019-01-29T01:17:17.282Z,2.30
2019-01-29T01:19:43.509Z,2.30
2019-01-29T01:22:09.715Z,2.30
2019-01-29T01:24:37.147Z,2.30
2019-01-29T01:27:03.461Z,2.40
2019-01-29T01:29:29.654Z,2.40
2019-01-29T01:31:55.883Z,2.50
2019-01-29T01:34:28.562Z,2.50
2019-01-29T01:36:54.774Z,2.70
2019-01-29T01:39:20.982Z,2.70
2019-01-29T01:41:47.197Z,2.70
2019-01-29T01:44:13.398Z,2.80
2019-01-29T01:46:39.618Z,2.80
2019-01-29T01:49:05.927Z,2.80
2019-01-29T01:51:32.448Z,2.80
2019-01-29T01:53:58.931Z,2.80
2019-01-29T01:56:25.150Z,2.80
2019-01-29T01:58:51.349Z,2.70
2019-01-29T02:01:17.566Z,2.70
2019-01-29T02:03:43.774Z,2.80
2019-01-29T02:06:10.022Z,2.80
2019-01-29T02:08:36.399Z,2.60
2019-01-29T02:11:02.982Z,2.60
2019-01-29T02:13:29.197Z,2.60
2019-01-29T02:15:55.407Z,2.60
2019-01-29T02:18:21.650Z,2.70
2019-01-29T02:20:47.851Z,2.70
2019-01-29T02:23:14.170Z,2.70
2019-01-29T02:25:40.566Z,2.70
2019-01-29T02:28:06.907Z,2.60
2019-01-29T02:30:33.220Z,2.70
2019-01-29T02:32:59.629Z,2.80
2019-01-29T02:35:25.842Z,2.80
2019-01-29T02:37:52.054Z,2.90
2019-01-29T02:40:24.212Z,2.80
2019-01-29T02:42:50.415Z,2.80
2019-01-29T02:45:18.343Z,2.80
2019-01-29T02:47:44.753Z,2.80
2019-01-29T02:50:13.586Z,2.70
2019-01-29T02:52:39.786Z,2.80
2019-01-29T02:55:08.407Z,2.80
2019-01-29T02:57:34.938Z,2.80
2019-01-29T03:00:01.263Z,2.70
2019-01-29T03:02:27.470Z,2.60
2019-01-29T03:04:53.695Z,2.70
2019-01-29T03:07:19.985Z,2.70
2019-01-29T03:09:46.306Z,2.70
2019-01-29T03:12:12.626Z,2.70
2019-01-29T03:14:38.842Z,2.80
2019-01-29T03:17:05.064Z,2.70
2019-01-29T03:19:31.266Z,2.60
2019-01-29T03:21:57.830Z,2.70
2019-01-29T03:24:24.146Z,2.70
2019-01-29T03:26:50.672Z,2.80
2019-01-29T03:29:16.862Z,2.90
2019-01-29T03:31:43.121Z,2.90
2019-01-29T03:34:09.409Z,2.80
2019-01-29T03:36:35.614Z,2.90
2019-01-29T03:39:04.243Z,2.90
2019-01-29T03:41:30.643Z,2.90
2019-01-29T03:43:57.111Z,2.90
2019-01-29T03:46:23.315Z,2.90
2019-01-29T03:48:49.529Z,2.90
2019-01-29T03:51:16.820Z,3.00
2019-01-29T03:53:43.138Z,2.90
2019-01-29T03:56:09.734Z,2.90
2019-01-29T03:58:36.050Z,2.90
2019-01-29T04:01:02.962Z,2.90
2019-01-29T04:03:29.279Z,3.00
2019-01-29T04:05:55.478Z,3.00
2019-01-29T04:08:21.747Z,3.00
2019-01-29T04:10:48.106Z,3.00
2019-01-29T04:13:14.322Z,3.00
2019-01-29T04:15:40.760Z,3.00
2019-01-29T04:18:07.161Z,3.00
2019-01-29T04:20:33.383Z,3.00
2019-01-29T04:22:59.580Z,3.00
2019-01-29T04:25:25.907Z,3.00
2019-01-29T04:27:52.114Z,3.10
2019-01-29T04:30:20.244Z,3.00
2019-01-29T04:32:46.543Z,2.90
2019-01-29T04:35:12.955Z,2.90
2019-01-29T04:37:39.275Z,2.80
2019-01-29T04:40:08.987Z,2.90
2019-01-29T04:42:35.210Z,2.90
2019-01-29T04:45:01.624Z,2.80
2019-01-29T04:47:27.842Z,2.80
2019-01-29T04:49:54.038Z,2.80
2019-01-29T04:52:20.258Z,2.80
2019-01-29T04:54:46.459Z,2.90
2019-01-29T04:57:12.675Z,2.90
2019-01-29T04:59:38.873Z,2.90
2019-01-29T05:02:05.652Z,3.00
2019-01-29T05:04:31.861Z,2.90
2019-01-29T05:06:58.068Z,3.00
2019-01-29T05:09:24.292Z,2.90
2019-01-29T05:11:50.511Z,2.90
2019-01-29T05:14:16.746Z,3.00
2019-01-29T05:16:42.964Z,3.00
2019-01-29T05:19:09.195Z,3.00
2019-01-29T05:21:35.391Z,3.00
2019-01-29T05:24:07.065Z,2.90
2019-01-29T05:26:29.724Z,2.90
2019-01-29T05:28:56.049Z,2.80
2019-01-29T05:31:22.259Z,2.80
2019-01-29T05:33:48.479Z,2.80
2019-01-29T05:36:14.724Z,2.80
2019-01-29T05:38:40.947Z,2.80
2019-01-29T05:41:07.357Z,2.80
2019-01-29T05:43:33.548Z,2.80
2019-01-29T05:45:59.760Z,2.70
2019-01-29T05:48:25.970Z,2.60
2019-01-29T05:50:52.291Z,2.70
2019-01-29T05:53:18.495Z,2.60
2019-01-29T05:55:44.720Z,2.60
2019-01-29T05:58:10.932Z,2.50
2019-01-29T06:00:39.226Z,2.50
2019-01-29T06:03:05.430Z,2.50
2019-01-29T06:05:31.754Z,2.40
2019-01-29T06:07:58.249Z,2.30
2019-01-29T06:10:24.474Z,2.30
2019-01-29T06:12:50.689Z,2.20
2019-01-29T06:15:23.966Z,2.30
2019-01-29T06:17:50.517Z,2.20
2019-01-29T06:20:19.149Z,2.30
2019-01-29T06:22:45.364Z,2.30
2019-01-29T06:25:12.116Z,2.40
2019-01-29T06:27:38.499Z,2.40
2019-01-29T06:30:10.923Z,2.40
2019-01-29T06:32:37.138Z,2.50
2019-01-29T06:35:07.155Z,2.40
2019-01-29T06:37:33.371Z,2.30
2019-01-29T06:39:59.575Z,2.20
2019-01-29T06:42:25.802Z,2.10
2019-01-29T06:44:52.011Z,2.20
2019-01-29T06:47:18.238Z,2.10
2019-01-29T06:49:44.434Z,2.10
2019-01-29T06:52:10.649Z,2.10
2019-01-29T06:54:36.855Z,2.10
2019-01-29T06:57:03.070Z,2.00
2019-01-29T06:59:29.283Z,2.00
2019-01-29T07:01:55.502Z,2.00
2019-01-29T07:04:21.724Z,1.90
2019-01-29T07:06:47.946Z,1.90
2019-01-29T07:09:14.151Z,1.90
2019-01-29T07:11:40.381Z,1.90
2019-01-29T07:14:06.686Z,1.90
2019-01-29T07:16:34.819Z,1.90
2019-01-29T07:19:02.922Z,1.90
2019-01-29T07:21:29.159Z,1.80
2019-01-29T07:23:55.722Z,1.80
2019-01-29T07:26:22.298Z,1.70
2019-01-29T07:28:48.661Z,1.70
2019-01-29T07:31:14.971Z,1.70
2019-01-29T07:33:41.993Z,1.70
2019-01-29T07:36:14.291Z,1.60
2019-01-29T07:38:40.511Z,1.70
2019-01-29T07:41:06.714Z,1.70
2019-01-29T07:43:33.038Z,1.70
2019-01-29T07:45:59.229Z,1.80
2019-01-29T07:48:25.460Z,1.80
2019-01-29T07:50:51.958Z,1.90
2019-01-29T07:53:18.310Z,2.10
2019-01-29T07:55:44.701Z,2.20
2019-01-29T07:58:10.918Z,2.30
2019-01-29T08:00:37.682Z,2.40
2019-01-29T08:03:04.131Z,2.50
2019-01-29T08:05:30.339Z,2.50
2019-01-29T08:07:56.568Z,2.50
2019-01-29T08:10:24.654Z,2.50
2019-01-29T08:12:51.231Z,2.60
2019-01-29T08:15:21.394Z,2.60
2019-01-29T08:17:47.795Z,2.70
2019-01-29T08:20:15.318Z,2.70
2019-01-29T08:22:41.631Z,2.60
2019-01-29T08:25:09.075Z,2.70
2019-01-29T08:27:35.418Z,2.70
2019-01-29T08:30:01.945Z,2.80
2019-01-29T08:32:28.178Z,2.80
2019-01-29T08:34:54.426Z,3.00
2019-01-29T08:37:20.639Z,2.90
2019-01-29T08:39:46.958Z,3.00
2019-01-29T08:42:13.166Z,3.00
2019-01-29T08:44:39.370Z,3.00
2019-01-29T08:47:05.895Z,3.00
2019-01-29T08:49:34.012Z,3.10
2019-01-29T08:52:00.233Z,3.20
2019-01-29T08:54:26.534Z,3.30
2019-01-29T08:56:52.763Z,3.30
2019-01-29T08:59:19.051Z,3.50
2019-01-29T09:04:11.843Z,3.70
2019-01-29T09:06:38.062Z,3.60
2019-01-29T09:09:07.578Z,3.60
2019-01-29T09:11:33.902Z,3.50
2019-01-29T09:14:00.351Z,3.50
2019-01-29T09:16:26.570Z,3.60
2019-01-29T09:18:52.778Z,3.40
2019-01-29T09:21:19.009Z,3.50
2019-01-29T09:23:45.217Z,3.50
2019-01-29T09:26:11.522Z,3.60
2019-01-29T09:28:37.742Z,3.60
2019-01-29T09:31:04.038Z,3.70
2019-01-29T09:33:30.270Z,3.80
2019-01-29T09:35:56.522Z,3.90
2019-01-29T09:38:22.738Z,3.90
2019-01-29T09:40:48.947Z,4.00
2019-01-29T09:43:15.270Z,4.00
2019-01-29T09:45:41.465Z,4.10
2019-01-29T09:48:07.686Z,4.20
2019-01-29T09:50:33.887Z,4.10
2019-01-29T09:53:00.226Z,4.20
2019-01-29T09:55:29.576Z,4.30
2019-01-29T09:57:54.543Z,4.30
2019-01-29T10:00:32.683Z,4.30
2019-01-29T10:02:58.986Z,4.30
2019-01-29T10:05:25.411Z,4.40
2019-01-29T10:07:51.717Z,4.40
2019-01-29T10:10:18.041Z,4.40
2019-01-29T10:12:44.370Z,4.40
2019-01-29T10:15:14.389Z,4.30
2019-01-29T10:17:40.583Z,4.30
2019-01-29T10:20:07.302Z,4.40
2019-01-29T10:22:33.510Z,4.50
2019-01-29T10:24:59.731Z,4.50
2019-01-29T10:27:26.034Z,4.40
2019-01-29T10:29:52.337Z,4.60
2019-01-29T10:32:18.571Z,4.60
2019-01-29T10:34:44.768Z,4.70
2019-01-29T10:37:11.090Z,4.70
2019-01-29T10:39:37.302Z,4.70
2019-01-29T10:42:05.956Z,4.70
2019-01-29T10:44:32.150Z,4.70
2019-01-29T10:46:58.369Z,4.80
2019-01-29T10:49:24.675Z,4.90
2019-01-29T10:51:51.015Z,5.00
2019-01-29T10:54:17.256Z,4.80
2019-01-29T10:56:43.579Z,4.70
2019-01-29T10:59:10.694Z,4.80
2019-01-29T11:01:37.255Z,4.80
2019-01-29T11:04:03.552Z,5.00
2019-01-29T11:06:29.876Z,5.00
2019-01-29T11:08:56.077Z,4.90
2019-01-29T11:11:22.286Z,5.00
2019-01-29T11:13:48.506Z,5.00
2019-01-29T11:16:14.727Z,4.90
2019-01-29T11:18:41.146Z,5.00
2019-01-29T11:21:07.341Z,5.10
2019-01-29T11:23:33.662Z,5.30
2019-01-29T11:25:59.868Z,5.30
2019-01-29T11:28:26.139Z,5.30
2019-01-29T11:30:52.354Z,5.20
2019-01-29T11:33:18.570Z,5.20
2019-01-29T11:35:44.874Z,5.40
2019-01-29T11:38:11.102Z,5.50
2019-01-29T11:40:37.602Z,5.50
2019-01-29T11:43:04.356Z,5.60
2019-01-29T11:45:36.619Z,5.50
2019-01-29T11:48:03.140Z,5.30
2019-01-29T11:50:29.650Z,5.30
2019-01-29T11:52:55.982Z,5.60
2019-01-29T11:55:22.283Z,5.90
2019-01-29T11:57:48.502Z,5.90
2019-01-29T12:00:20.004Z,5.70
2019-01-29T12:02:46.222Z,5.60
2019-01-29T12:05:12.626Z,5.30
2019-01-29T12:07:38.959Z,5.40
2019-01-29T12:10:08.566Z,5.50
2019-01-29T12:12:34.933Z,5.50
2019-01-29T12:15:01.448Z,5.40
2019-01-29T12:17:27.663Z,5.10
2019-01-29T12:19:53.862Z,5.20
2019-01-29T12:22:20.178Z,5.20
2019-01-29T12:24:46.394Z,5.30
2019-01-29T12:27:12.630Z,5.40
2019-01-29T12:29:38.826Z,5.60
2019-01-29T12:32:05.239Z,5.80
2019-01-29T12:34:31.597Z,5.90
2019-01-29T12:36:58.003Z,6.00
2019-01-29T12:39:24.214Z,6.10
2019-01-29T12:41:50.422Z,6.10
2019-01-29T12:44:16.647Z,6.20
2019-01-29T12:46:42.878Z,6.20
2019-01-29T12:49:09.247Z,6.10
2019-01-29T12:51:36.359Z,6.10
2019-01-29T12:54:03.690Z,6.00
2019-01-29T12:56:29.887Z,6.30
2019-01-29T12:59:14.912Z,6.30
2019-01-29T13:01:41.687Z,6.30
2019-01-29T13:04:09.886Z,6.30
2019-01-29T13:06:36.102Z,6.20
2019-01-29T13:09:06.198Z,6.10
2019-01-29T13:11:32.634Z,6.20
2019-01-29T13:13:58.930Z,6.40
2019-01-29T13:16:25.154Z,6.50
2019-01-29T13:18:51.350Z,6.60
2019-01-29T13:21:17.566Z,6.40
2019-01-29T13:23:43.765Z,6.40
2019-01-29T13:26:10.207Z,6.50
2019-01-29T13:28:36.501Z,6.60
2019-01-29T13:31:03.126Z,6.70
2019-01-29T13:33:29.422Z,6.80
2019-01-29T13:35:55.858Z,6.50
2019-01-29T13:38:22.085Z,6.10
2019-01-29T13:40:48.402Z,5.80
2019-01-29T13:43:33.322Z,5.60
2019-01-29T13:45:59.678Z,5.70
2019-01-29T13:48:25.894Z,5.50
2019-01-29T13:50:53.022Z,5.30
2019-01-29T13:53:19.219Z,5.20
2019-01-29T13:55:45.558Z,5.30
2019-01-29T13:58:11.967Z,5.40
2019-01-29T14:00:39.179Z,5.40
2019-01-29T14:03:07.198Z,5.50
2019-01-29T14:05:33.406Z,5.20
2019-01-29T14:07:59.614Z,5.10
2019-01-29T14:10:25.830Z,5.10
2019-01-29T14:12:52.248Z,5.10
2019-01-29T14:15:25.652Z,5.20
2019-01-29T14:17:51.867Z,5.20
2019-01-29T14:20:18.787Z,5.20
2019-01-29T14:22:45.107Z,5.20
2019-01-29T14:25:11.716Z,5.00
2019-01-29T14:27:37.931Z,5.00
2019-01-29T14:30:22.592Z,5.10
2019-01-29T14:32:49.227Z,5.20
2019-01-29T14:35:15.739Z,5.10
2019-01-29T14:38:10.975Z,5.10
2019-01-29T14:40:37.466Z,5.30
2019-01-29T14:43:06.186Z,5.60
2019-01-29T14:45:32.499Z,6.00
2019-01-29T14:47:58.770Z,6.30
2019-01-29T14:50:26.578Z,6.40
2019-01-29T14:52:53.038Z,6.40
2019-01-29T14:55:20.314Z,6.50
2019-01-29T14:57:46.656Z,6.40
2019-01-29T15:00:28.214Z,6.50
2019-01-29T15:02:54.553Z,6.60
2019-01-29T15:05:20.894Z,6.60
2019-01-29T15:07:47.295Z,6.80
2019-01-29T15:10:19.470Z,6.90
2019-01-29T15:12:45.875Z,6.80
2019-01-29T15:15:15.190Z,6.60
2019-01-29T15:17:43.423Z,6.70
2019-01-29T15:20:28.063Z,6.50
2019-01-29T15:22:55.643Z,6.30
2019-01-29T15:25:21.871Z,5.90
2019-01-29T15:28:07.260Z,5.70
2019-01-29T15:30:33.582Z,5.50
2019-01-29T15:32:59.890Z,5.40
2019-01-29T15:35:26.106Z,5.20
2019-01-29T15:38:10.687Z,5.30
2019-01-29T15:40:37.522Z,5.10
2019-01-29T15:43:04.323Z,5.00
2019-01-29T15:45:30.746Z,4.90
2019-01-29T15:47:56.947Z,4.70
2019-01-29T15:50:25.974Z,4.70
2019-01-29T15:52:52.185Z,4.60
2019-01-29T15:55:18.989Z,4.40
2019-01-29T15:57:46.670Z,4.20
2019-01-29T16:00:16.481Z,4.20
2019-01-29T16:02:43.074Z,4.00
2019-01-29T16:05:12.685Z,3.90
2019-01-29T16:07:38.906Z,3.70
2019-01-29T16:10:11.943Z,3.60
2019-01-29T16:12:38.235Z,3.60
2019-01-29T16:15:08.490Z,3.40
2019-01-29T16:17:34.808Z,3.30
2019-01-29T16:20:01.119Z,3.20
2019-01-29T16:22:27.343Z,3.20
2019-01-29T16:24:53.754Z,3.10
2019-01-29T16:27:22.741Z,3.10
2019-01-29T16:29:48.168Z,3.00
2019-01-29T16:32:15.463Z,2.90
2019-01-29T16:34:41.683Z,2.90
2019-01-29T16:37:08.018Z,2.80
2019-01-29T16:39:34.226Z,2.70
2019-01-29T16:42:18.989Z,2.60
2019-01-29T16:44:45.196Z,2.60
2019-01-29T16:47:11.509Z,2.60
2019-01-29T16:49:37.714Z,2.50
2019-01-29T16:52:04.132Z,2.50
2019-01-29T16:54:30.354Z,2.50
2019-01-29T16:56:56.659Z,2.50
2019-01-29T16:59:22.876Z,2.50
2019-01-29T17:01:49.078Z,2.50
2019-01-29T17:04:15.342Z,2.50
2019-01-29T17:06:41.566Z,2.50
2019-01-29T17:09:08.214Z,2.50
2019-01-29T17:11:34.425Z,2.50
2019-01-29T17:14:00.731Z,2.50
2019-01-29T17:16:26.939Z,2.60
2019-01-29T17:18:53.167Z,2.50
2019-01-29T17:21:19.384Z,2.60
2019-01-29T17:23:45.598Z,2.50
2019-01-29T17:26:11.902Z,2.40
2019-01-29T17:28:38.122Z,2.30
2019-01-29T17:31:22.690Z,2.30
2019-01-29T17:33:48.961Z,2.20
2019-01-29T17:36:15.231Z,2.20
2019-01-29T17:38:44.706Z,2.20
2019-01-29T17:41:09.909Z,2.20
2019-01-29T17:43:36.378Z,2.30
2019-01-29T17:46:02.781Z,2.40
2019-01-29T17:48:28.999Z,2.40
2019-01-29T17:50:55.207Z,2.40
2019-01-29T17:53:21.554Z,2.40
2019-01-29T17:55:47.772Z,2.40
2019-01-29T17:58:14.676Z,2.40
2019-01-29T18:00:59.609Z,2.40
2019-01-29T18:03:25.822Z,2.30
2019-01-29T18:05:52.053Z,2.30
2019-01-29T18:08:18.255Z,2.30
2019-01-29T18:10:44.678Z,2.30
2019-01-29T18:13:10.883Z,2.20
2019-01-29T18:15:37.094Z,2.20
2019-01-29T18:18:03.502Z,2.20
2019-01-29T18:20:29.774Z,2.20
2019-01-29T18:22:56.786Z,2.20
2019-01-29T18:25:23.314Z,2.20
2019-01-29T18:27:49.609Z,2.30
2019-01-29T18:30:31.201Z,2.30
2019-01-29T18:32:57.402Z,2.20
2019-01-29T18:35:23.742Z,2.20
2019-01-29T18:37:50.038Z,2.20
2019-01-29T18:40:37.983Z,2.30
2019-01-29T18:43:04.309Z,2.30
2019-01-29T18:45:30.554Z,2.20
2019-01-29T18:47:56.749Z,2.30
2019-01-29T18:50:23.253Z,2.30
2019-01-29T18:52:49.568Z,2.30
2019-01-29T18:55:16.092Z,2.40
2019-01-29T18:57:42.303Z,2.40
2019-01-29T19:00:12.137Z,2.40
2019-01-29T19:02:38.658Z,2.40
2019-01-29T19:05:07.727Z,2.30
2019-01-29T19:07:33.930Z,2.30
2019-01-29T19:10:00.188Z,2.40
2019-01-29T19:12:26.451Z,2.40
2019-01-29T19:14:52.656Z,2.40
2019-01-29T19:17:18.873Z,2.40
2019-01-29T19:19:45.078Z,2.40
2019-01-29T19:22:11.398Z,2.40
2019-01-29T19:24:37.599Z,2.40
2019-01-29T19:27:03.918Z,2.40
2019-01-29T19:29:30.118Z,2.40
2019-01-29T19:31:56.342Z,2.40
2019-01-29T19:34:22.551Z,2.40
2019-01-29T19:36:48.825Z,2.40
2019-01-29T19:39:34.991Z,2.40
2019-01-29T19:42:01.221Z,2.40
2019-01-29T19:44:27.459Z,2.40
2019-01-29T19:46:53.673Z,2.50
2019-01-29T19:49:19.910Z,2.40
2019-01-29T19:51:46.207Z,2.50
2019-01-29T19:54:12.415Z,2.50
2019-01-29T19:56:38.614Z,2.50
2019-01-29T19:59:07.370Z,2.50
2019-01-29T20:01:33.244Z,2.40
2019-01-29T20:03:59.487Z,2.60
2019-01-29T20:06:45.555Z,2.60
2019-01-29T20:09:12.391Z,2.60
2019-01-29T20:11:38.692Z,2.60
2019-01-29T20:14:04.919Z,2.60
2019-01-29T20:16:31.117Z,2.50
2019-01-29T20:18:57.349Z,2.60
2019-01-29T20:21:23.655Z,2.60
2019-01-29T20:23:49.883Z,2.60
2019-01-29T20:26:16.073Z,2.60
2019-01-29T20:28:42.908Z,2.60
2019-01-29T20:31:09.205Z,2.50
2019-01-29T20:33:35.423Z,2.60
2019-01-29T20:36:01.634Z,2.60
2019-01-29T20:38:34.924Z,2.60
2019-01-29T20:40:56.182Z,2.60
2019-01-29T20:43:22.406Z,2.60
2019-01-29T20:46:08.476Z,2.50
2019-01-29T20:48:34.699Z,2.70
2019-01-29T20:51:00.998Z,2.60
2019-01-29T20:53:27.227Z,2.60
2019-01-29T20:55:53.536Z,2.60
2019-01-29T20:58:39.629Z,2.60
2019-01-29T21:01:05.835Z,2.60
2019-01-29T21:03:32.066Z,2.60
2019-01-29T21:05:58.606Z,2.50
2019-01-29T21:08:24.831Z,2.40
2019-01-29T21:10:51.034Z,2.50
2019-01-29T21:13:17.259Z,2.50
2019-01-29T21:15:43.453Z,2.50
2019-01-29T21:18:29.688Z,2.50
2019-01-29T21:20:57.118Z,2.40
2019-01-29T21:23:23.607Z,2.50
2019-01-29T21:25:49.831Z,2.60
2019-01-29T21:28:16.027Z,2.60
2019-01-29T21:30:43.914Z,2.60
2019-01-29T21:33:10.354Z,2.60
2019-01-29T21:35:36.574Z,2.60
2019-01-29T21:38:03.370Z,2.60
2019-01-29T21:40:29.694Z,2.50
2019-01-29T21:42:55.895Z,2.60
2019-01-29T21:45:23.043Z,2.50
2019-01-29T21:47:50.447Z,2.60
2019-01-29T21:50:19.877Z,2.50
2019-01-29T21:52:46.290Z,2.60
2019-01-29T21:55:31.002Z,2.60
2019-01-29T21:57:59.111Z,2.60
2019-01-29T22:00:31.895Z,2.50
2019-01-29T22:02:58.130Z,2.50
2019-01-29T22:05:24.354Z,2.60
2019-01-29T22:07:50.555Z,2.60
2019-01-29T22:10:16.875Z,2.60
2019-01-29T22:12:43.750Z,2.60
2019-01-29T22:15:15.767Z,2.50
2019-01-29T22:17:42.790Z,2.50
2019-01-29T22:20:14.922Z,2.50
2019-01-29T22:22:41.350Z,2.50
2019-01-29T22:25:11.150Z,2.50
2019-01-29T22:27:37.374Z,2.50
2019-01-29T22:30:07.370Z,2.50
2019-01-29T22:32:33.595Z,2.50
2019-01-29T22:34:59.789Z,2.50
2019-01-29T22:37:26.031Z,2.50
2019-01-29T22:39:52.225Z,2.40
2019-01-29T22:42:18.441Z,2.40
2019-01-29T22:44:44.850Z,2.40
2019-01-29T22:47:11.066Z,2.40
2019-01-29T22:49:37.261Z,2.40
2019-01-29T22:52:03.686Z,2.40
2019-01-29T22:54:29.950Z,2.40
2019-01-29T22:56:56.150Z,2.40
2019-01-29T22:59:22.384Z,2.30
2019-01-29T23:01:48.686Z,2.30
2019-01-29T23:04:15.107Z,2.30
2019-01-29T23:06:45.114Z,2.30
2019-01-29T23:09:11.533Z,2.30
2019-01-29T23:11:37.747Z,2.30
2019-01-29T23:14:05.262Z,2.30
2019-01-29T23:16:31.470Z,2.30
2019-01-29T23:18:57.695Z,2.30
2019-01-29T23:21:23.914Z,2.30
2019-01-29T23:23:50.139Z,2.40
2019-01-29T23:26:16.338Z,2.40
2019-01-29T23:28:42.558Z,2.30
2019-01-29T23:31:08.768Z,2.20
2019-01-29T23:33:35.094Z,2.30
2019-01-29T23:36:01.290Z,2.30
2019-01-29T23:38:27.518Z,2.20
2019-01-29T23:40:53.732Z,2.20
2019-01-29T23:43:20.201Z,2.30
2019-01-29T23:45:46.405Z,2.20
2019-01-29T23:48:12.622Z,2.20
2019-01-29T23:50:38.831Z,2.20
2019-01-29T23:53:06.118Z,2.20
2019-01-29T23:55:32.334Z,2.20
2019-01-29T23:57:58.525Z,2.20
